• Join FlightAware (Why Join?)
  • Login
  • US Flag 
04:53AM EDT


 

Airport Tracker/Info


-or-


 

Live Flight TrackerFlight Track Log ✈ JBU1273 ✈ 06-May-2013 ✈ KJFK - KCHS

Flight Track Log - Related Links

Times and Time Zones

All times are in EDT time to prevent confusion due to time zone crossing. See the JBU1273 flight status page for this flight to view local times or setup timezone preferences in your user account.

Time Position Orientation Groundspeed Altitude Reporting Facility
EDT Latitude Longitude Course Direction KTS MPH feet Rate Location/Type
08:07AM 40.6336 -73.8611 217° Southwest 195 224 2,300  Level New York Center
08:08AM 40.5667 -73.9333 219° Southwest 254 292 6,300 3,240 Climbing New York TRACON
08:09AM 40.2627 -74.0365 211° Southwest  Level FlightAware Approximate
08:09AM 40.5000 -73.9833 210° Southwest 280 322 9,600  Level New York TRACON
08:10AM 40.1707 -74.1081 211° Southwest  Level FlightAware Approximate
08:10AM 40.4333 -74.0333 210° Southwest 353 406 11,200  Level New York TRACON
08:11AM 40.0812 -74.1844 201° Southwest  Level FlightAware Approximate
08:11AM 40.3656 -74.0642 199° South 362 417 13,200  Level New York Center
08:12AM 39.9915 -74.2585 217° Southwest  Level FlightAware Approximate
08:12AM 40.2578 -74.1217 202° Southwest 375 432 16,000  Level New York Center
08:13AM 40.1117 -74.1944 201° Southwest 391 450 18,900 1,800 Climbing Washington Center
08:14AM 40.0039 -74.2561 204° Southwest 403 464 20,600 1,680 Climbing Washington Center
08:16AM 39.9195 -74.3305 217° Southwest  Level FlightAware Approximate
08:18AM 39.6289 -74.6808 222° Southwest 457 526 27,500  Level Washington Center
08:19AM 39.5381 -74.8031 226° Southwest 463 533 28,800 1,380 Climbing Washington Center
08:21AM 39.4306 -74.9284 224° Southwest  Level FlightAware Approximate
08:21AM 39.3558 -75.0414 224° Southwest 463 533 31,800  Level Washington Center
08:22AM 39.2583 -75.1467 220° Southwest 458 527 32,900 1,020 Climbing Washington Center
08:23AM 39.5401 -74.7846 222° Southwest  Level FlightAware Approximate
08:23AM 39.1483 -75.2303 211° Southwest 458 527 33,900  Level Washington Center
08:24AM 39.4851 -74.8496 222° Southwest  Level FlightAware Approximate
08:25AM 39.0226 -75.3199 209° Southwest  Level FlightAware Approximate
08:25AM 38.9319 -75.3969 209° Southwest 469 540 35,900  Level Washington Center
08:26AM 38.8214 -75.4744 209° Southwest 464 534 36,900 720 Climbing Washington Center
08:27AM 38.7131 -75.5625 212° Southwest 464 534 37,400 360 Climbing Washington Center
08:29AM 38.6064 -75.6235 208° Southwest  Level FlightAware Approximate
08:29AM 38.4983 -75.7192 208° Southwest 459 528 38,000  Level Washington Center
08:30AM 38.3919 -75.8036 212° Southwest 453 521 38,000  Level Washington Center
08:31AM 38.2833 -75.8747 207° Southwest 448 516 38,000  Level Washington Center
08:32AM 38.1789 -75.9536 211° Southwest 448 516 38,000  Level Washington Center
08:34AM 38.0765 -76.0274 210° Southwest  Level FlightAware Approximate
08:34AM 37.9697 -76.1081 210° Southwest 448 516 38,000  Level Washington Center
08:35AM 37.8672 -76.1836 210° Southwest 448 516 38,000  Level Washington Center
08:36AM 37.7606 -76.2589 209° Southwest 443 510 38,000 -180 Level Washington Center
08:37AM 37.6578 -76.3342 210° Southwest 443 510 37,700 -720 Descending Washington Center
08:39AM 37.5536 -76.4034 208° Southwest  Level FlightAware Approximate
08:39AM 37.4567 -76.4786 208° Southwest 425 489 36,000  Level Washington Center
08:41AM 37.3262 -76.5623 212° Southwest  Level FlightAware Approximate
08:41AM 37.2511 -76.6278 212° Southwest 425 489 36,000  Level Washington Center
08:43AM 37.1207 -76.7164 208° Southwest  Level FlightAware Approximate
08:44AM 36.9275 -76.8597 218° Southwest 425 489 36,000  Level Washington Center
08:45AM 36.8244 -76.9333 210° Southwest 425 489 36,000  Level Washington Center
08:46AM 36.7256 -77.0069 211° Southwest 425 489 36,000  Level Washington Center
08:48AM 36.6041 -77.1130 215° Southwest  Level FlightAware Approximate
08:48AM 36.5378 -77.1792 215° Southwest 425 489 36,000  Level Washington Center
08:50AM 36.4908 -77.1998 218° Southwest  Level FlightAware Approximate
08:50AM 36.3644 -77.3486 218° Southwest 419 482 36,000  Level Washington Center
08:52AM 36.2289 -77.4260 215° Southwest  Level FlightAware Approximate
08:54AM 35.9831 -77.6994 215° Southwest 428 493 34,000  Level Washington Center
08:56AM 35.8608 -77.7963 213° Southwest  Level Estimated
08:56AM 35.7819 -77.8606 213° Southwest 434 499 34,000  Level Washington Center
08:57AM 35.6825 -77.9369 212° Southwest 434 499 34,000  Level Washington Center
08:58AM 35.5806 -78.0183 213° Southwest 434 499 34,000  Level Washington Center
08:59AM 35.6176 -77.9494 215° Southwest  Level FlightAware Approximate
08:59AM 35.4789 -78.0967 212° Southwest 434 499 34,000  Level Washington Center
09:01AM 35.3442 -78.1778 213° Southwest  Level FlightAware Approximate
09:01AM 35.2881 -78.2408 213° Southwest 434 499 34,000  Level Washington Center
09:02AM 35.1881 -78.3189 213° Southwest 434 499 34,000  Level Washington Center
09:03AM 35.0925 -78.3944 213° Southwest 429 494 34,000 -300 Level Washington Center
09:05AM 34.9631 -78.4778 212° Southwest  Level FlightAware Approximate
09:05AM 34.8575 -78.5742 212° Southwest 426 490 33,100  Level Jacksonville Center
09:07AM 34.7490 -78.6484 209° Southwest  Level FlightAware Approximate
09:07AM 34.6603 -78.7203 209° Southwest 408 470 28,500  Level Jacksonville Center
09:09AM 34.5486 -78.7912 213° Southwest  Level FlightAware Approximate
09:09AM 34.4733 -78.8706 213° Southwest 430 495 28,000  Level Jacksonville Center
09:10AM 34.3653 -78.9558 213° Southwest 430 495 27,900 -360 Descending Jacksonville Center
09:11AM 34.2653 -79.0258 210° Southwest 430 495 27,300 -720 Descending Jacksonville Center
09:12AM 34.1583 -79.0733 200° South 416 479 26,500 -960 Descending Jacksonville Center
09:13AM 34.0492 -79.1206 200° South 416 479 25,400 -1,320 Descending Jacksonville Center
09:14AM 33.9442 -79.1678 200° South 411 473 23,900 -1,500 Descending Jacksonville Center
09:16AM 33.8238 -79.2091 207° Southwest  Level FlightAware Approximate
09:16AM 33.7428 -79.2711 207° Southwest 401 461 20,900  Level Jacksonville Center
09:18AM 33.6334 -79.3462 210° Southwest  Level FlightAware Approximate
09:18AM 33.5711 -79.4003 210° Southwest 371 427 16,600  Level Jacksonville Center
09:19AM 33.4853 -79.4633 212° Southwest 366 421 14,000 -2,640 Descending Jacksonville Center
09:20AM 33.4014 -79.5264 212° Southwest 366 421 11,400 -1,500 Descending Jacksonville Center
09:21AM 33.3236 -79.5889 214° Southwest 355 409 11,000 -300 Descending Jacksonville Center
09:22AM 33.2481 -79.6464 212° Southwest 349 402 10,900 -1,620 Descending Jacksonville Center
09:24AM 33.1386 -79.7197 210° Southwest  Level FlightAware Approximate
09:25AM 33.0981 -79.8353 348° North 268 308 4,600  Level Jacksonville Center
09:27AM 33.0239 -79.9617 235° Southwest 242 278 1,600 -1,020 Descending Jacksonville Center
09:28AM 32.9850 -79.9928 214° Southwest 202 232 1,600 -300 Level Jacksonville Center
09:29AM 32.9519 -80.0111 205° Southwest 166 191 1,100 -540 Descending Jacksonville Center
09:31AM 32.8986 -80.0405 203° Southwest  Level Estimated
09:31AM 32.8833 -80.0333 348° North  Level FlightAware Approximate
09:38AM 32.8986 -80.0405 348° North  Level Estimated